Decoded Metar for LDSP (SPLIT in CROATIA) (IATA:SPU) | Meteo·Mobile Aviation Weather
aviador You're here:

LDSP Decoded Metar

SPLIT in CROATIA
Report Time2018-09-19 22:00:00
UTC Time2018-09-19 22:09:08
Flight Rules vfr VFR
WindVRB at 01 kt
Visibility9999 m
Phenomena:N/A
Clouds:N/A
Expected CloudBase > 2,800 ft AGL from Temp-Dew spread
CeilingNone
Temp22°C (ISA +7)
Dew Point15°C (65% RH)
QNH1018 hPa
Density Alt961 ft
Elevation69 ft
Report Wrong Elevation
Raw Report
METAR LDSP 192200Z AUTO VRB01KT CAVOK 22/15 Q1018=

Extra information for LDSP:More info

Metar Taf Metar & Taf Last 4 Metars F.Rules Stats Wind Profile Meteogram Temp Stats Airport Information Weather charts Add Link Nearby VenuesMetar ALERT Operation Metar Decoded Social comments